LiveATC.Net - Listen to live air traffic control over the Internet!


ICAO: KAAO  IATA: AAO   Airport: Colonel James Jabara Airport
City: Wichita   State/Province: Kansas
Country: United States   Continent: North America
KAAO METAR Weather: KAAO 201054Z AUTO 01010KT 10SM CLR M13/M19 A3064 RMK AO2 SLP402 T11331194
KAAO Flight Activity (FlightAware)
KAAO Airport Info   (iFlightPlanner)
KAAO VFR Sectional Chart   (iFlightPlanner) 
KAAO IFR Low Altitude Chart   (iFlightPlanner) 
KAAO IFR High Altitude Chart   (iFlightPlanner) 

KAAO CTAF/KBEC Twr
Feed Status: UP   Listeners: 0
Listen in your browser - HTML5 player (in browser, HTML5)
Click here to listen with your own player (launches your MP3 player)
Archive Access: KAAO CTAF/KBEC Twr
FacilityFrequency
Beech Tower126.800
Jabara CTAF122.700

NOTICE

Unauthorized use prohibited. See LiveATC.net Terms of Service


Airport/ARTCC Code
Frequency Search
(e.g., 124.400, 128.75)
Site-wide search
 


Browse Feeds
Top 50 Feeds
HF Oceanic Feeds
Coverage Map
Bad Weather Areas

LiveATC FAQ
Offer LiveATC feed
Contact LiveATC.net
Press Inquiries

LiveATC on iPhone
LiveATC on Android

LiveATC Mobile
(Mobile browser)

ATC Audio Archives
Interesting Recordings

LiveATC Forums


Home Page
About LiveATC.net
Make a Donation
Terms of Use
Privacy Policy

Canadian Air Freqs

AIRMETs/SIGMETs

FAA Airport Status
NAS Status
Arrival Demand


Server Software By:
Icecast.org
Liquidsoap